sensor_id;sensor_type;location;lat;lon;timestamp;P1;durP1;ratioP1;P2;durP2;ratioP2
29878;SDS011;16752;53.364;-1.488;2023-08-31T00:02:05;2.95;;;1.60;;
29878;SDS011;16752;53.364;-1.488;2023-08-31T00:04:53;3.85;;;1.55;;
29878;SDS011;16752;53.364;-1.488;2023-08-31T00:07:37;3.33;;;1.55;;
29878;SDS011;16752;53.364;-1.488;2023-08-31T00:10:21;4.75;;;1.75;;
29878;SDS011;16752;53.364;-1.488;2023-08-31T00:13:07;2.97;;;1.85;;
29878;SDS011;16752;53.364;-1.488;2023-08-31T00:15:53;3.08;;;1.70;;
29878;SDS011;16752;53.364;-1.488;2023-08-31T00:18:39;6.35;;;1.90;;
29878;SDS011;16752;53.364;-1.488;2023-08-31T00:21:24;4.38;;;1.80;;
29878;SDS011;16752;53.364;-1.488;2023-08-31T00:24:08;4.55;;;2.05;;
29878;SDS011;16752;53.364;-1.488;2023-08-31T00:26:54;4.28;;;1.75;;
29878;SDS011;16752;53.364;-1.488;2023-08-31T00:29:38;5.88;;;2.25;;
29878;SDS011;16752;53.364;-1.488;2023-08-31T00:32:22;4.78;;;1.60;;
29878;SDS011;16752;53.364;-1.488;2023-08-31T00:35:07;8.30;;;2.30;;
29878;SDS011;16752;53.364;-1.488;2023-08-31T00:37:51;6.00;;;1.88;;
29878;SDS011;16752;53.364;-1.488;2023-08-31T00:43:28;6.53;;;2.17;;
29878;SDS011;16752;53.364;-1.488;2023-08-31T00:46:13;3.28;;;1.80;;
29878;SDS011;16752;53.364;-1.488;2023-08-31T00:48:58;3.53;;;2.03;;
29878;SDS011;16752;53.364;-1.488;2023-08-31T00:51:42;6.28;;;2.38;;
29878;SDS011;16752;53.364;-1.488;2023-08-31T00:54:34;3.95;;;2.40;;
29878;SDS011;16752;53.364;-1.488;2023-08-31T00:57:19;5.63;;;2.45;;
29878;SDS011;16752;53.364;-1.488;2023-08-31T01:00:03;4.78;;;2.30;;
29878;SDS011;16752;53.364;-1.488;2023-08-31T01:05:57;6.68;;;2.22;;
29878;SDS011;16752;53.364;-1.488;2023-08-31T01:08:56;5.88;;;1.80;;
29878;SDS011;16752;53.364;-1.488;2023-08-31T01:12:08;4.22;;;1.92;;
29878;SDS011;16752;53.364;-1.488;2023-08-31T01:15:04;3.97;;;1.92;;
29878;SDS011;16752;53.364;-1.488;2023-08-31T01:17:52;3.20;;;2.03;;
29878;SDS011;16752;53.364;-1.488;2023-08-31T01:20:42;5.97;;;2.03;;
29878;SDS011;16752;53.364;-1.488;2023-08-31T01:24:08;4.72;;;2.15;;
29878;SDS011;16752;53.364;-1.488;2023-08-31T01:26:45;6.03;;;2.40;;
29878;SDS011;16752;53.364;-1.488;2023-08-31T01:29:31;4.00;;;1.65;;
29878;SDS011;16752;53.364;-1.488;2023-08-31T01:32:15;3.80;;;2.28;;
29878;SDS011;16752;53.364;-1.488;2023-08-31T01:35:00;12.88;;;2.40;;
29878;SDS011;16752;53.364;-1.488;2023-08-31T01:37:51;2.78;;;2.35;;
29878;SDS011;16752;53.364;-1.488;2023-08-31T01:40:40;3.30;;;2.30;;
29878;SDS011;16752;53.364;-1.488;2023-08-31T01:43:32;12.13;;;2.92;;
29878;SDS011;16752;53.364;-1.488;2023-08-31T01:46:20;6.40;;;2.28;;
29878;SDS011;16752;53.364;-1.488;2023-08-31T01:49:05;5.22;;;2.10;;
29878;SDS011;16752;53.364;-1.488;2023-08-31T01:51:50;6.03;;;2.10;;
29878;SDS011;16752;53.364;-1.488;2023-08-31T01:54:34;3.65;;;2.75;;
29878;SDS011;16752;53.364;-1.488;2023-08-31T01:57:18;4.45;;;2.10;;
29878;SDS011;16752;53.364;-1.488;2023-08-31T02:00:03;3.88;;;2.10;;
29878;SDS011;16752;53.364;-1.488;2023-08-31T02:02:48;6.57;;;2.30;;
29878;SDS011;16752;53.364;-1.488;2023-08-31T02:05:32;5.03;;;2.80;;
29878;SDS011;16752;53.364;-1.488;2023-08-31T02:08:16;4.72;;;2.33;;
29878;SDS011;16752;53.364;-1.488;2023-08-31T02:11:01;3.80;;;1.80;;
29878;SDS011;16752;53.364;-1.488;2023-08-31T02:13:46;4.85;;;2.30;;
29878;SDS011;16752;53.364;-1.488;2023-08-31T02:16:30;5.55;;;2.55;;
29878;SDS011;16752;53.364;-1.488;2023-08-31T02:19:15;6.47;;;2.47;;
29878;SDS011;16752;53.364;-1.488;2023-08-31T02:22:00;7.25;;;2.05;;
29878;SDS011;16752;53.364;-1.488;2023-08-31T02:24:43;3.95;;;2.38;;
29878;SDS011;16752;53.364;-1.488;2023-08-31T02:27:28;4.88;;;2.00;;
29878;SDS011;16752;53.364;-1.488;2023-08-31T02:30:12;2.65;;;1.75;;
29878;SDS011;16752;53.364;-1.488;2023-08-31T02:32:58;3.78;;;2.03;;
29878;SDS011;16752;53.364;-1.488;2023-08-31T02:35:42;1.95;;;1.80;;
29878;SDS011;16752;53.364;-1.488;2023-08-31T02:38:26;3.40;;;2.50;;
29878;SDS011;16752;53.364;-1.488;2023-08-31T02:41:10;2.90;;;2.15;;
29878;SDS011;16752;53.364;-1.488;2023-08-31T02:43:55;2.92;;;2.10;;
29878;SDS011;16752;53.364;-1.488;2023-08-31T02:46:39;5.43;;;2.50;;
29878;SDS011;16752;53.364;-1.488;2023-08-31T02:49:23;4.85;;;2.13;;
29878;SDS011;16752;53.364;-1.488;2023-08-31T02:52:07;4.47;;;1.95;;
29878;SDS011;16752;53.364;-1.488;2023-08-31T02:54:52;2.53;;;2.05;;
29878;SDS011;16752;53.364;-1.488;2023-08-31T02:57:36;5.10;;;2.15;;
29878;SDS011;16752;53.364;-1.488;2023-08-31T03:00:22;4.65;;;2.50;;
29878;SDS011;16752;53.364;-1.488;2023-08-31T03:03:10;2.70;;;1.98;;
29878;SDS011;16752;53.364;-1.488;2023-08-31T03:05:54;2.55;;;1.90;;
29878;SDS011;16752;53.364;-1.488;2023-08-31T03:08:40;3.83;;;2.20;;
29878;SDS011;16752;53.364;-1.488;2023-08-31T03:11:24;4.50;;;2.20;;
29878;SDS011;16752;53.364;-1.488;2023-08-31T03:14:08;4.70;;;2.67;;
29878;SDS011;16752;53.364;-1.488;2023-08-31T03:16:53;3.58;;;2.25;;
29878;SDS011;16752;53.364;-1.488;2023-08-31T03:19:38;3.05;;;1.80;;
29878;SDS011;16752;53.364;-1.488;2023-08-31T03:22:22;5.53;;;2.20;;
29878;SDS011;16752;53.364;-1.488;2023-08-31T03:25:07;11.65;;;2.53;;
29878;SDS011;16752;53.364;-1.488;2023-08-31T03:27:54;5.05;;;2.20;;
29878;SDS011;16752;53.364;-1.488;2023-08-31T03:30:41;3.65;;;2.20;;
29878;SDS011;16752;53.364;-1.488;2023-08-31T03:33:28;4.20;;;2.28;;
29878;SDS011;16752;53.364;-1.488;2023-08-31T03:36:13;5.82;;;2.28;;
29878;SDS011;16752;53.364;-1.488;2023-08-31T03:38:58;8.15;;;2.20;;
29878;SDS011;16752;53.364;-1.488;2023-08-31T03:41:43;6.43;;;2.72;;
29878;SDS011;16752;53.364;-1.488;2023-08-31T03:44:28;3.72;;;2.10;;
29878;SDS011;16752;53.364;-1.488;2023-08-31T03:47:25;3.47;;;2.13;;
29878;SDS011;16752;53.364;-1.488;2023-08-31T03:50:33;6.30;;;2.30;;
29878;SDS011;16752;53.364;-1.488;2023-08-31T03:53:22;3.35;;;2.25;;
29878;SDS011;16752;53.364;-1.488;2023-08-31T03:56:29;1.77;;;1.33;;
29878;SDS011;16752;53.364;-1.488;2023-08-31T04:00:06;3.60;;;1.98;;
29878;SDS011;16752;53.364;-1.488;2023-08-31T04:02:56;3.20;;;2.00;;
29878;SDS011;16752;53.364;-1.488;2023-08-31T04:05:45;3.65;;;1.92;;
29878;SDS011;16752;53.364;-1.488;2023-08-31T04:09:01;3.33;;;1.63;;
29878;SDS011;16752;53.364;-1.488;2023-08-31T04:14:45;3.35;;;2.20;;
29878;SDS011;16752;53.364;-1.488;2023-08-31T06:20:13;2.97;;;2.05;;
29878;SDS011;16752;53.364;-1.488;2023-08-31T06:23:00;3.88;;;2.20;;
29878;SDS011;16752;53.364;-1.488;2023-08-31T06:25:55;2.63;;;1.98;;
29878;SDS011;16752;53.364;-1.488;2023-08-31T06:28:39;4.95;;;1.92;;
29878;SDS011;16752;53.364;-1.488;2023-08-31T06:31:23;2.75;;;1.63;;
29878;SDS011;16752;53.364;-1.488;2023-08-31T06:34:07;7.00;;;2.20;;
29878;SDS011;16752;53.364;-1.488;2023-08-31T06:36:51;7.32;;;2.10;;
29878;SDS011;16752;53.364;-1.488;2023-08-31T06:39:35;4.43;;;2.00;;
29878;SDS011;16752;53.364;-1.488;2023-08-31T06:42:20;3.20;;;2.00;;
29878;SDS011;16752;53.364;-1.488;2023-08-31T06:45:05;1.65;;;1.55;;
29878;SDS011;16752;53.364;-1.488;2023-08-31T06:47:51;2.90;;;2.13;;
29878;SDS011;16752;53.364;-1.488;2023-08-31T06:50:35;4.50;;;2.10;;
29878;SDS011;16752;53.364;-1.488;2023-08-31T06:53:19;6.57;;;3.13;;
29878;SDS011;16752;53.364;-1.488;2023-08-31T06:56:03;5.70;;;3.10;;
29878;SDS011;16752;53.364;-1.488;2023-08-31T06:58:47;5.75;;;3.35;;
29878;SDS011;16752;53.364;-1.488;2023-08-31T07:01:31;6.18;;;3.75;;
29878;SDS011;16752;53.364;-1.488;2023-08-31T07:04:16;6.03;;;3.03;;
29878;SDS011;16752;53.364;-1.488;2023-08-31T07:07:05;6.88;;;3.60;;
29878;SDS011;16752;53.364;-1.488;2023-08-31T07:09:49;5.05;;;2.88;;
29878;SDS011;16752;53.364;-1.488;2023-08-31T07:12:33;7.38;;;3.70;;
29878;SDS011;16752;53.364;-1.488;2023-08-31T07:15:18;6.45;;;2.72;;
29878;SDS011;16752;53.364;-1.488;2023-08-31T07:18:02;5.18;;;3.70;;
29878;SDS011;16752;53.364;-1.488;2023-08-31T07:20:47;5.10;;;3.40;;
29878;SDS011;16752;53.364;-1.488;2023-08-31T07:23:32;8.00;;;3.22;;
29878;SDS011;16752;53.364;-1.488;2023-08-31T07:26:16;4.10;;;2.67;;
29878;SDS011;16752;53.364;-1.488;2023-08-31T07:29:01;3.10;;;2.10;;
29878;SDS011;16752;53.364;-1.488;2023-08-31T07:31:48;4.70;;;3.00;;
29878;SDS011;16752;53.364;-1.488;2023-08-31T07:34:34;7.63;;;3.72;;
29878;SDS011;16752;53.364;-1.488;2023-08-31T07:37:19;6.82;;;3.72;;
29878;SDS011;16752;53.364;-1.488;2023-08-31T07:40:03;6.45;;;3.20;;
29878;SDS011;16752;53.364;-1.488;2023-08-31T07:42:52;6.25;;;3.47;;
29878;SDS011;16752;53.364;-1.488;2023-08-31T07:45:36;5.07;;;3.15;;
29878;SDS011;16752;53.364;-1.488;2023-08-31T07:48:20;6.18;;;2.90;;
29878;SDS011;16752;53.364;-1.488;2023-08-31T07:51:15;6.25;;;2.88;;
29878;SDS011;16752;53.364;-1.488;2023-08-31T07:54:19;4.72;;;2.47;;
29878;SDS011;16752;53.364;-1.488;2023-08-31T07:57:06;6.50;;;2.70;;
29878;SDS011;16752;53.364;-1.488;2023-08-31T07:59:50;7.75;;;3.10;;
29878;SDS011;16752;53.364;-1.488;2023-08-31T08:03:09;5.80;;;3.05;;
29878;SDS011;16752;53.364;-1.488;2023-08-31T08:06:03;5.80;;;3.75;;
29878;SDS011;16752;53.364;-1.488;2023-08-31T08:08:47;7.57;;;3.13;;
29878;SDS011;16752;53.364;-1.488;2023-08-31T08:11:31;5.20;;;3.33;;
29878;SDS011;16752;53.364;-1.488;2023-08-31T08:14:18;7.10;;;2.95;;
29878;SDS011;16752;53.364;-1.488;2023-08-31T08:17:13;6.00;;;2.00;;
29878;SDS011;16752;53.364;-1.488;2023-08-31T08:20:18;4.65;;;2.00;;
29878;SDS011;16752;53.364;-1.488;2023-08-31T08:23:02;6.20;;;1.88;;
29878;SDS011;16752;53.364;-1.488;2023-08-31T08:25:46;5.00;;;1.75;;
29878;SDS011;16752;53.364;-1.488;2023-08-31T08:28:31;10.25;;;2.40;;
29878;SDS011;16752;53.364;-1.488;2023-08-31T08:31:16;5.35;;;2.13;;
29878;SDS011;16752;53.364;-1.488;2023-08-31T08:34:00;10.60;;;1.92;;
29878;SDS011;16752;53.364;-1.488;2023-08-31T08:36:44;4.25;;;2.30;;
29878;SDS011;16752;53.364;-1.488;2023-08-31T08:39:29;8.30;;;2.60;;
29878;SDS011;16752;53.364;-1.488;2023-08-31T08:47:54;6.10;;;2.33;;
29878;SDS011;16752;53.364;-1.488;2023-08-31T08:50:41;4.72;;;1.92;;
29878;SDS011;16752;53.364;-1.488;2023-08-31T08:53:25;7.28;;;1.98;;
29878;SDS011;16752;53.364;-1.488;2023-08-31T08:56:09;2.90;;;1.75;;
29878;SDS011;16752;53.364;-1.488;2023-08-31T08:58:53;3.72;;;1.90;;
29878;SDS011;16752;53.364;-1.488;2023-08-31T09:01:37;5.20;;;1.85;;
29878;SDS011;16752;53.364;-1.488;2023-08-31T09:13:46;3.30;;;1.50;;
29878;SDS011;16752;53.364;-1.488;2023-08-31T09:16:30;3.95;;;2.17;;
29878;SDS011;16752;53.364;-1.488;2023-08-31T09:19:25;2.90;;;1.95;;
29878;SDS011;16752;53.364;-1.488;2023-08-31T09:28:27;6.43;;;1.83;;
29878;SDS011;16752;53.364;-1.488;2023-08-31T09:31:12;4.18;;;1.98;;
29878;SDS011;16752;53.364;-1.488;2023-08-31T09:43:43;6.40;;;1.98;;
29878;SDS011;16752;53.364;-1.488;2023-08-31T09:46:27;5.65;;;1.63;;
29878;SDS011;16752;53.364;-1.488;2023-08-31T09:57:54;5.10;;;2.33;;
29878;SDS011;16752;53.364;-1.488;2023-08-31T10:00:40;8.70;;;1.88;;
29878;SDS011;16752;53.364;-1.488;2023-08-31T10:03:25;4.15;;;1.55;;
29878;SDS011;16752;53.364;-1.488;2023-08-31T10:12:58;6.53;;;1.95;;
29878;SDS011;16752;53.364;-1.488;2023-08-31T10:15:57;5.32;;;1.55;;
29878;SDS011;16752;53.364;-1.488;2023-08-31T10:18:50;3.40;;;1.40;;
29878;SDS011;16752;53.364;-1.488;2023-08-31T10:21:59;3.42;;;1.42;;
29878;SDS011;16752;53.364;-1.488;2023-08-31T10:31:06;1.65;;;0.90;;
29878;SDS011;16752;53.364;-1.488;2023-08-31T10:34:00;3.13;;;1.15;;
29878;SDS011;16752;53.364;-1.488;2023-08-31T10:37:00;2.17;;;1.35;;
29878;SDS011;16752;53.364;-1.488;2023-08-31T10:40:08;5.38;;;1.25;;
29878;SDS011;16752;53.364;-1.488;2023-08-31T10:46:27;3.90;;;1.10;;
29878;SDS011;16752;53.364;-1.488;2023-08-31T10:56:29;3.75;;;1.38;;
29878;SDS011;16752;53.364;-1.488;2023-08-31T10:59:16;1.95;;;1.20;;
29878;SDS011;16752;53.364;-1.488;2023-08-31T11:02:01;2.78;;;1.10;;
29878;SDS011;16752;53.364;-1.488;2023-08-31T11:04:52;3.70;;;1.90;;
29878;SDS011;16752;53.364;-1.488;2023-08-31T11:07:38;4.55;;;1.48;;
29878;SDS011;16752;53.364;-1.488;2023-08-31T11:10:24;6.05;;;1.48;;
29878;SDS011;16752;53.364;-1.488;2023-08-31T11:13:16;4.50;;;1.40;;
29878;SDS011;16752;53.364;-1.488;2023-08-31T11:16:06;2.63;;;1.30;;
29878;SDS011;16752;53.364;-1.488;2023-08-31T11:18:50;3.78;;;1.38;;
29878;SDS011;16752;53.364;-1.488;2023-08-31T11:21:36;3.08;;;1.63;;
29878;SDS011;16752;53.364;-1.488;2023-08-31T11:24:21;6.93;;;1.55;;
29878;SDS011;16752;53.364;-1.488;2023-08-31T11:27:07;2.92;;;1.45;;
29878;SDS011;16752;53.364;-1.488;2023-08-31T11:29:51;3.20;;;1.40;;
29878;SDS011;16752;53.364;-1.488;2023-08-31T11:32:42;2.60;;;1.40;;
29878;SDS011;16752;53.364;-1.488;2023-08-31T11:35:41;2.08;;;1.33;;
29878;SDS011;16752;53.364;-1.488;2023-08-31T11:38:28;2.13;;;1.60;;
29878;SDS011;16752;53.364;-1.488;2023-08-31T11:41:12;3.38;;;1.52;;
29878;SDS011;16752;53.364;-1.488;2023-08-31T11:43:58;3.50;;;1.40;;
29878;SDS011;16752;53.364;-1.488;2023-08-31T11:46:43;1.88;;;1.10;;
29878;SDS011;16752;53.364;-1.488;2023-08-31T11:49:32;4.00;;;1.48;;
29878;SDS011;16752;53.364;-1.488;2023-08-31T11:52:16;2.15;;;1.08;;
29878;SDS011;16752;53.364;-1.488;2023-08-31T11:55:00;1.60;;;1.15;;
29878;SDS011;16752;53.364;-1.488;2023-08-31T11:57:49;10.45;;;2.10;;
29878;SDS011;16752;53.364;-1.488;2023-08-31T12:00:33;2.22;;;1.10;;
29878;SDS011;16752;53.364;-1.488;2023-08-31T12:03:18;4.93;;;1.20;;
29878;SDS011;16752;53.364;-1.488;2023-08-31T12:06:02;4.07;;;1.27;;
29878;SDS011;16752;53.364;-1.488;2023-08-31T12:08:47;1.70;;;1.20;;
29878;SDS011;16752;53.364;-1.488;2023-08-31T12:11:32;3.83;;;1.40;;
29878;SDS011;16752;53.364;-1.488;2023-08-31T12:17:07;4.43;;;1.55;;
29878;SDS011;16752;53.364;-1.488;2023-08-31T12:19:52;2.33;;;1.08;;
29878;SDS011;16752;53.364;-1.488;2023-08-31T12:22:36;2.38;;;1.13;;
29878;SDS011;16752;53.364;-1.488;2023-08-31T12:25:20;2.90;;;1.00;;
29878;SDS011;16752;53.364;-1.488;2023-08-31T12:28:05;5.97;;;1.48;;
29878;SDS011;16752;53.364;-1.488;2023-08-31T12:30:49;3.50;;;1.55;;
29878;SDS011;16752;53.364;-1.488;2023-08-31T12:33:37;3.75;;;1.50;;
29878;SDS011;16752;53.364;-1.488;2023-08-31T12:36:37;2.55;;;1.02;;
29878;SDS011;16752;53.364;-1.488;2023-08-31T12:39:23;2.70;;;0.82;;
29878;SDS011;16752;53.364;-1.488;2023-08-31T12:42:07;3.58;;;1.17;;
29878;SDS011;16752;53.364;-1.488;2023-08-31T12:44:52;3.63;;;1.40;;
29878;SDS011;16752;53.364;-1.488;2023-08-31T12:47:36;1.73;;;1.10;;
29878;SDS011;16752;53.364;-1.488;2023-08-31T12:50:23;1.95;;;1.20;;
29878;SDS011;16752;53.364;-1.488;2023-08-31T12:53:08;8.70;;;1.70;;
29878;SDS011;16752;53.364;-1.488;2023-08-31T12:55:53;2.55;;;1.23;;
29878;SDS011;16752;53.364;-1.488;2023-08-31T12:58:44;2.92;;;1.15;;
29878;SDS011;16752;53.364;-1.488;2023-08-31T13:01:33;4.68;;;1.30;;
29878;SDS011;16752;53.364;-1.488;2023-08-31T13:07:24;1.65;;;1.00;;
29878;SDS011;16752;53.364;-1.488;2023-08-31T13:10:08;2.33;;;1.00;;
29878;SDS011;16752;53.364;-1.488;2023-08-31T13:12:53;1.77;;;1.10;;
29878;SDS011;16752;53.364;-1.488;2023-08-31T13:15:48;3.45;;;1.20;;
29878;SDS011;16752;53.364;-1.488;2023-08-31T13:18:32;3.35;;;0.80;;
29878;SDS011;16752;53.364;-1.488;2023-08-31T13:21:17;5.25;;;1.15;;
29878;SDS011;16752;53.364;-1.488;2023-08-31T13:24:01;2.92;;;1.02;;
29878;SDS011;16752;53.364;-1.488;2023-08-31T13:26:48;6.05;;;1.58;;
29878;SDS011;16752;53.364;-1.488;2023-08-31T13:29:32;1.85;;;0.95;;
29878;SDS011;16752;53.364;-1.488;2023-08-31T13:32:19;4.05;;;1.20;;
29878;SDS011;16752;53.364;-1.488;2023-08-31T13:35:07;2.97;;;1.50;;
29878;SDS011;16752;53.364;-1.488;2023-08-31T13:37:52;2.25;;;0.90;;
29878;SDS011;16752;53.364;-1.488;2023-08-31T13:40:36;4.20;;;1.23;;
29878;SDS011;16752;53.364;-1.488;2023-08-31T13:43:21;3.47;;;1.38;;
29878;SDS011;16752;53.364;-1.488;2023-08-31T13:46:06;2.65;;;1.38;;
29878;SDS011;16752;53.364;-1.488;2023-08-31T13:48:50;4.22;;;1.77;;
29878;SDS011;16752;53.364;-1.488;2023-08-31T13:51:34;4.35;;;1.60;;
29878;SDS011;16752;53.364;-1.488;2023-08-31T13:54:18;5.72;;;1.33;;
29878;SDS011;16752;53.364;-1.488;2023-08-31T13:57:02;7.47;;;1.90;;
29878;SDS011;16752;53.364;-1.488;2023-08-31T13:59:47;2.38;;;1.33;;
29878;SDS011;16752;53.364;-1.488;2023-08-31T14:02:31;2.78;;;1.67;;
29878;SDS011;16752;53.364;-1.488;2023-08-31T14:05:15;2.38;;;1.50;;
29878;SDS011;16752;53.364;-1.488;2023-08-31T14:07:59;4.50;;;1.67;;
29878;SDS011;16752;53.364;-1.488;2023-08-31T14:10:53;5.78;;;1.70;;
29878;SDS011;16752;53.364;-1.488;2023-08-31T14:13:38;6.93;;;2.15;;
29878;SDS011;16752;53.364;-1.488;2023-08-31T14:16:22;6.38;;;1.63;;
29878;SDS011;16752;53.364;-1.488;2023-08-31T14:19:06;3.28;;;1.42;;
29878;SDS011;16752;53.364;-1.488;2023-08-31T14:21:50;2.75;;;1.52;;
29878;SDS011;16752;53.364;-1.488;2023-08-31T14:24:37;4.35;;;1.55;;
29878;SDS011;16752;53.364;-1.488;2023-08-31T14:27:21;8.40;;;1.92;;
29878;SDS011;16752;53.364;-1.488;2023-08-31T14:30:07;5.00;;;1.52;;
29878;SDS011;16752;53.364;-1.488;2023-08-31T14:32:52;6.80;;;2.00;;
29878;SDS011;16752;53.364;-1.488;2023-08-31T14:35:38;7.80;;;1.98;;
29878;SDS011;16752;53.364;-1.488;2023-08-31T14:38:22;2.75;;;1.60;;
29878;SDS011;16752;53.364;-1.488;2023-08-31T14:41:14;7.30;;;1.88;;
29878;SDS011;16752;53.364;-1.488;2023-08-31T14:43:58;4.32;;;2.08;;
29878;SDS011;16752;53.364;-1.488;2023-08-31T14:46:42;6.03;;;1.92;;
29878;SDS011;16752;53.364;-1.488;2023-08-31T14:49:29;7.05;;;1.73;;
29878;SDS011;16752;53.364;-1.488;2023-08-31T14:52:13;3.80;;;1.70;;
29878;SDS011;16752;53.364;-1.488;2023-08-31T14:54:57;5.78;;;2.22;;
29878;SDS011;16752;53.364;-1.488;2023-08-31T14:57:40;3.58;;;2.10;;
29878;SDS011;16752;53.364;-1.488;2023-08-31T15:00:26;5.88;;;2.13;;
29878;SDS011;16752;53.364;-1.488;2023-08-31T15:03:13;4.07;;;1.88;;
29878;SDS011;16752;53.364;-1.488;2023-08-31T15:05:57;4.00;;;2.35;;
29878;SDS011;16752;53.364;-1.488;2023-08-31T15:08:46;7.50;;;2.45;;
29878;SDS011;16752;53.364;-1.488;2023-08-31T15:11:30;11.23;;;2.95;;
29878;SDS011;16752;53.364;-1.488;2023-08-31T15:14:14;6.53;;;2.85;;
29878;SDS011;16752;53.364;-1.488;2023-08-31T15:16:59;8.68;;;2.97;;
29878;SDS011;16752;53.364;-1.488;2023-08-31T15:19:43;9.10;;;4.35;;
29878;SDS011;16752;53.364;-1.488;2023-08-31T15:22:27;8.55;;;5.43;;
29878;SDS011;16752;53.364;-1.488;2023-08-31T15:25:11;7.90;;;3.83;;
29878;SDS011;16752;53.364;-1.488;2023-08-31T15:27:54;10.45;;;3.78;;
29878;SDS011;16752;53.364;-1.488;2023-08-31T15:30:39;8.57;;;4.80;;
29878;SDS011;16752;53.364;-1.488;2023-08-31T15:33:36;8.27;;;4.80;;
29878;SDS011;16752;53.364;-1.488;2023-08-31T15:36:20;10.27;;;4.18;;
29878;SDS011;16752;53.364;-1.488;2023-08-31T15:39:12;6.50;;;3.90;;
29878;SDS011;16752;53.364;-1.488;2023-08-31T15:48:05;9.93;;;4.15;;
29878;SDS011;16752;53.364;-1.488;2023-08-31T15:50:49;9.23;;;5.60;;
29878;SDS011;16752;53.364;-1.488;2023-08-31T15:53:33;11.02;;;5.35;;
29878;SDS011;16752;53.364;-1.488;2023-08-31T15:56:24;9.43;;;5.82;;
29878;SDS011;16752;53.364;-1.488;2023-08-31T15:59:09;9.48;;;4.88;;
29878;SDS011;16752;53.364;-1.488;2023-08-31T16:02:27;7.10;;;5.32;;
29878;SDS011;16752;53.364;-1.488;2023-08-31T16:05:11;7.50;;;4.70;;
29878;SDS011;16752;53.364;-1.488;2023-08-31T16:07:55;12.70;;;6.00;;
29878;SDS011;16752;53.364;-1.488;2023-08-31T16:10:39;12.25;;;5.32;;
29878;SDS011;16752;53.364;-1.488;2023-08-31T16:16:11;9.63;;;4.82;;
29878;SDS011;16752;53.364;-1.488;2023-08-31T16:18:56;11.18;;;5.78;;
29878;SDS011;16752;53.364;-1.488;2023-08-31T16:24:22;11.55;;;5.00;;
29878;SDS011;16752;53.364;-1.488;2023-08-31T16:29:49;10.23;;;4.65;;
29878;SDS011;16752;53.364;-1.488;2023-08-31T16:36:12;6.33;;;4.37;;
29878;SDS011;16752;53.364;-1.488;2023-08-31T16:38:57;7.10;;;4.38;;
29878;SDS011;16752;53.364;-1.488;2023-08-31T16:41:42;5.93;;;4.70;;
29878;SDS011;16752;53.364;-1.488;2023-08-31T16:44:26;10.30;;;5.22;;
29878;SDS011;16752;53.364;-1.488;2023-08-31T16:47:10;7.65;;;4.32;;
29878;SDS011;16752;53.364;-1.488;2023-08-31T16:49:57;12.27;;;4.57;;
29878;SDS011;16752;53.364;-1.488;2023-08-31T16:52:42;8.98;;;5.10;;
29878;SDS011;16752;53.364;-1.488;2023-08-31T16:55:28;8.05;;;4.68;;
29878;SDS011;16752;53.364;-1.488;2023-08-31T16:58:12;9.48;;;5.35;;
29878;SDS011;16752;53.364;-1.488;2023-08-31T17:00:56;8.50;;;4.50;;
29878;SDS011;16752;53.364;-1.488;2023-08-31T17:03:40;12.60;;;6.20;;
29878;SDS011;16752;53.364;-1.488;2023-08-31T17:06:24;13.32;;;4.85;;
29878;SDS011;16752;53.364;-1.488;2023-08-31T17:09:09;9.23;;;5.55;;
29878;SDS011;16752;53.364;-1.488;2023-08-31T17:11:53;8.90;;;5.50;;
29878;SDS011;16752;53.364;-1.488;2023-08-31T17:14:37;8.45;;;5.13;;
29878;SDS011;16752;53.364;-1.488;2023-08-31T17:17:20;9.02;;;4.72;;
29878;SDS011;16752;53.364;-1.488;2023-08-31T17:20:11;14.90;;;5.43;;
29878;SDS011;16752;53.364;-1.488;2023-08-31T17:23:01;8.73;;;4.40;;
29878;SDS011;16752;53.364;-1.488;2023-08-31T17:25:46;9.48;;;4.75;;
29878;SDS011;16752;53.364;-1.488;2023-08-31T17:28:30;9.50;;;4.45;;
29878;SDS011;16752;53.364;-1.488;2023-08-31T17:31:14;7.05;;;4.05;;
29878;SDS011;16752;53.364;-1.488;2023-08-31T17:34:03;7.07;;;4.60;;
29878;SDS011;16752;53.364;-1.488;2023-08-31T17:36:47;8.10;;;4.20;;
29878;SDS011;16752;53.364;-1.488;2023-08-31T17:39:32;9.70;;;3.97;;
29878;SDS011;16752;53.364;-1.488;2023-08-31T17:42:18;5.47;;;4.00;;
29878;SDS011;16752;53.364;-1.488;2023-08-31T17:45:06;8.00;;;4.78;;
29878;SDS011;16752;53.364;-1.488;2023-08-31T17:48:10;6.95;;;3.65;;
29878;SDS011;16752;53.364;-1.488;2023-08-31T17:50:54;10.75;;;3.47;;
29878;SDS011;16752;53.364;-1.488;2023-08-31T18:03:27;6.03;;;3.80;;
29878;SDS011;16752;53.364;-1.488;2023-08-31T18:06:12;6.85;;;4.00;;
29878;SDS011;16752;53.364;-1.488;2023-08-31T18:08:56;7.78;;;4.97;;
29878;SDS011;16752;53.364;-1.488;2023-08-31T18:11:40;12.27;;;4.30;;
29878;SDS011;16752;53.364;-1.488;2023-08-31T18:14:24;7.75;;;4.22;;
29878;SDS011;16752;53.364;-1.488;2023-08-31T18:17:09;6.25;;;4.07;;
29878;SDS011;16752;53.364;-1.488;2023-08-31T18:19:53;9.95;;;4.25;;
29878;SDS011;16752;53.364;-1.488;2023-08-31T18:22:37;8.55;;;5.55;;
29878;SDS011;16752;53.364;-1.488;2023-08-31T18:25:22;9.30;;;5.60;;
29878;SDS011;16752;53.364;-1.488;2023-08-31T18:28:06;7.35;;;4.15;;
29878;SDS011;16752;53.364;-1.488;2023-08-31T18:30:54;9.75;;;4.80;;
29878;SDS011;16752;53.364;-1.488;2023-08-31T18:33:39;9.48;;;4.72;;
29878;SDS011;16752;53.364;-1.488;2023-08-31T18:36:23;10.68;;;4.93;;
29878;SDS011;16752;53.364;-1.488;2023-08-31T18:39:07;7.25;;;5.05;;
29878;SDS011;16752;53.364;-1.488;2023-08-31T18:41:51;9.07;;;4.13;;
29878;SDS011;16752;53.364;-1.488;2023-08-31T18:44:35;8.07;;;5.50;;
29878;SDS011;16752;53.364;-1.488;2023-08-31T18:47:19;4.60;;;3.72;;
29878;SDS011;16752;53.364;-1.488;2023-08-31T18:50:03;9.20;;;4.93;;
29878;SDS011;16752;53.364;-1.488;2023-08-31T18:52:48;9.20;;;4.43;;
29878;SDS011;16752;53.364;-1.488;2023-08-31T18:55:33;11.52;;;4.60;;
29878;SDS011;16752;53.364;-1.488;2023-08-31T18:58:17;5.90;;;4.50;;
29878;SDS011;16752;53.364;-1.488;2023-08-31T19:01:02;7.18;;;5.13;;
29878;SDS011;16752;53.364;-1.488;2023-08-31T19:03:46;4.70;;;3.83;;
29878;SDS011;16752;53.364;-1.488;2023-08-31T19:06:32;9.93;;;4.82;;
29878;SDS011;16752;53.364;-1.488;2023-08-31T19:09:16;8.45;;;3.97;;
29878;SDS011;16752;53.364;-1.488;2023-08-31T19:12:00;8.00;;;4.97;;
29878;SDS011;16752;53.364;-1.488;2023-08-31T19:14:44;6.95;;;4.75;;
29878;SDS011;16752;53.364;-1.488;2023-08-31T19:17:29;10.60;;;5.25;;
29878;SDS011;16752;53.364;-1.488;2023-08-31T19:20:13;7.90;;;4.38;;
29878;SDS011;16752;53.364;-1.488;2023-08-31T19:23:00;12.40;;;4.95;;
29878;SDS011;16752;53.364;-1.488;2023-08-31T19:25:46;9.07;;;5.28;;
29878;SDS011;16752;53.364;-1.488;2023-08-31T19:28:32;10.38;;;5.35;;
29878;SDS011;16752;53.364;-1.488;2023-08-31T19:31:17;8.85;;;5.63;;
29878;SDS011;16752;53.364;-1.488;2023-08-31T19:34:01;9.48;;;5.45;;
29878;SDS011;16752;53.364;-1.488;2023-08-31T19:36:45;11.43;;;5.45;;
29878;SDS011;16752;53.364;-1.488;2023-08-31T19:39:30;12.55;;;5.68;;
29878;SDS011;16752;53.364;-1.488;2023-08-31T19:42:17;15.05;;;7.82;;
29878;SDS011;16752;53.364;-1.488;2023-08-31T19:45:01;11.90;;;7.15;;
29878;SDS011;16752;53.364;-1.488;2023-08-31T19:47:46;12.48;;;7.05;;
29878;SDS011;16752;53.364;-1.488;2023-08-31T19:50:31;8.98;;;6.55;;
29878;SDS011;16752;53.364;-1.488;2023-08-31T19:53:25;19.08;;;11.43;;
29878;SDS011;16752;53.364;-1.488;2023-08-31T19:56:12;19.00;;;11.65;;
29878;SDS011;16752;53.364;-1.488;2023-08-31T19:58:57;21.02;;;10.93;;
29878;SDS011;16752;53.364;-1.488;2023-08-31T20:01:43;16.77;;;9.23;;
29878;SDS011;16752;53.364;-1.488;2023-08-31T20:04:28;19.17;;;10.30;;
29878;SDS011;16752;53.364;-1.488;2023-08-31T20:07:12;21.70;;;9.05;;
29878;SDS011;16752;53.364;-1.488;2023-08-31T20:09:56;11.95;;;8.10;;
29878;SDS011;16752;53.364;-1.488;2023-08-31T20:12:43;11.90;;;8.38;;
29878;SDS011;16752;53.364;-1.488;2023-08-31T20:15:29;14.65;;;8.82;;
29878;SDS011;16752;53.364;-1.488;2023-08-31T20:18:20;16.00;;;8.50;;